createdAt,value
2022-08-03T00:03:45.646Z,19.13
2022-08-03T00:08:50.030Z,19.07
2022-08-03T00:13:56.835Z,19.04
2022-08-03T00:19:00.639Z,18.99
2022-08-03T00:24:02.838Z,18.91
2022-08-03T00:29:06.620Z,18.90
2022-08-03T00:34:10.764Z,18.87
2022-08-03T00:39:14.302Z,18.82
2022-08-03T00:44:16.052Z,18.77
2022-08-03T00:49:22.791Z,18.73
2022-08-03T00:54:25.322Z,18.66
2022-08-03T00:59:27.783Z,18.63
2022-08-03T01:04:29.560Z,18.63
2022-08-03T01:09:47.937Z,18.63
2022-08-03T01:15:03.537Z,18.62
2022-08-03T01:20:11.346Z,18.61
2022-08-03T01:25:36.339Z,18.61
2022-08-03T01:30:39.691Z,18.63
2022-08-03T01:35:44.724Z,18.68
2022-08-03T01:40:47.125Z,18.69
2022-08-03T01:45:51.565Z,18.72
2022-08-03T01:50:57.263Z,18.74
2022-08-03T01:56:02.637Z,18.76
2022-08-03T02:01:07.596Z,18.72
2022-08-03T02:06:58.956Z,18.71
2022-08-03T02:11:43.694Z,18.72
2022-08-03T02:16:48.074Z,18.72
2022-08-03T02:21:57.431Z,18.72
2022-08-03T02:27:13.545Z,18.72
2022-08-03T02:32:21.573Z,18.65
2022-08-03T02:37:28.087Z,18.62
2022-08-03T02:42:32.509Z,18.60
2022-08-03T02:47:54.430Z,18.55
2022-08-03T02:52:57.335Z,18.49
2022-08-03T02:58:02.002Z,18.44
2022-08-03T03:03:04.619Z,18.45
2022-08-03T03:08:17.634Z,18.45
2022-08-03T03:13:26.057Z,18.46
2022-08-03T03:18:31.357Z,18.46
2022-08-03T03:23:37.155Z,18.45
2022-08-03T03:28:42.522Z,18.41
2022-08-03T03:33:48.713Z,18.36
2022-08-03T03:38:50.545Z,18.36
2022-08-03T03:43:55.751Z,18.33
2022-08-03T03:49:00.634Z,18.33
2022-08-03T03:54:07.190Z,18.53
2022-08-03T03:59:08.945Z,18.55
2022-08-03T04:04:29.299Z,18.50
2022-08-03T04:09:55.015Z,18.46
2022-08-03T04:15:04.193Z,18.45
2022-08-03T04:20:12.792Z,18.49
2022-08-03T04:25:21.302Z,18.55
2022-08-03T04:30:27.995Z,18.59
2022-08-03T04:36:01.677Z,18.61
2022-08-03T04:41:07.623Z,18.67
2022-08-03T04:46:12.045Z,18.76
2022-08-03T04:51:18.700Z,18.81
2022-08-03T04:56:25.228Z,18.88
2022-08-03T05:01:29.502Z,18.97
2022-08-03T05:06:31.417Z,19.05
2022-08-03T05:11:38.353Z,19.11
2022-08-03T05:16:42.621Z,19.17
2022-08-03T05:21:53.122Z,19.25
2022-08-03T05:26:59.566Z,19.32
2022-08-03T05:32:09.545Z,19.42
2022-08-03T05:37:13.879Z,19.48
2022-08-03T05:42:18.734Z,19.59
2022-08-03T05:47:24.549Z,19.70
2022-08-03T05:52:27.873Z,19.82
2022-08-03T05:57:34.849Z,19.92
2022-08-03T06:02:37.953Z,20.06
2022-08-03T06:07:46.779Z,20.20
2022-08-03T06:12:49.553Z,20.34
2022-08-03T06:17:52.663Z,20.45
2022-08-03T06:23:01.057Z,20.58
2022-08-03T06:28:12.144Z,20.70
2022-08-03T06:34:30.443Z,20.75
2022-08-03T06:38:51.875Z,20.80
2022-08-03T06:44:03.065Z,20.96
2022-08-03T06:49:07.295Z,21.06
2022-08-03T06:54:09.152Z,21.12
2022-08-03T07:00:08.226Z,21.18
2022-08-03T07:04:36.304Z,21.27
2022-08-03T07:09:39.040Z,21.38
2022-08-03T07:14:43.550Z,21.47
2022-08-03T07:19:47.599Z,21.52
2022-08-03T07:24:54.853Z,21.63
2022-08-03T07:29:59.082Z,21.73
2022-08-03T07:35:02.653Z,21.87
2022-08-03T07:40:13.117Z,21.95
2022-08-03T07:45:17.226Z,22.02
2022-08-03T07:50:18.991Z,22.13
2022-08-03T07:55:30.381Z,22.24
2022-08-03T08:00:34.829Z,22.34
2022-08-03T08:05:37.076Z,22.46
2022-08-03T08:10:38.890Z,22.48
2022-08-03T08:15:42.583Z,22.64
2022-08-03T08:20:46.471Z,22.65
2022-08-03T08:25:52.256Z,22.70
2022-08-03T08:30:56.274Z,22.92
2022-08-03T08:36:02.897Z,23.18
2022-08-03T08:41:05.049Z,23.19
2022-08-03T08:46:12.040Z,23.29
2022-08-03T08:51:14.403Z,23.48
2022-08-03T08:56:17.224Z,23.55
2022-08-03T09:01:22.803Z,23.74
2022-08-03T09:06:27.029Z,23.87
2022-08-03T09:11:54.440Z,24.10
2022-08-03T09:17:04.654Z,24.20
2022-08-03T09:22:15.816Z,24.22
2022-08-03T09:27:19.025Z,24.38
2022-08-03T09:32:32.894Z,24.51
2022-08-03T09:38:12.290Z,24.60
2022-08-03T09:43:04.572Z,24.71
2022-08-03T09:48:26.995Z,24.90
2022-08-03T09:53:31.721Z,25.01
2022-08-03T09:58:33.488Z,25.16
2022-08-03T10:04:02.957Z,25.34
2022-08-03T10:09:04.878Z,25.45
2022-08-03T10:14:09.052Z,25.44
2022-08-03T10:19:15.160Z,25.60
2022-08-03T10:24:26.780Z,25.70
2022-08-03T10:29:29.292Z,25.97
2022-08-03T10:34:35.200Z,26.07
2022-08-03T10:39:37.078Z,26.28
2022-08-03T10:44:46.315Z,26.36
2022-08-03T10:49:49.967Z,26.39
2022-08-03T10:55:10.950Z,26.71
2022-08-03T11:00:18.254Z,27.09
2022-08-03T11:05:29.247Z,27.24
2022-08-03T11:10:38.127Z,27.35
2022-08-03T11:15:40.019Z,27.50
2022-08-03T11:20:59.315Z,27.74
2022-08-03T11:26:13.829Z,27.65
2022-08-03T11:31:48.615Z,27.68
2022-08-03T11:37:27.457Z,27.97
2022-08-03T11:42:35.286Z,28.24
2022-08-03T11:47:50.307Z,28.57
2022-08-03T11:53:00.540Z,28.98
2022-08-03T11:59:01.218Z,29.12
2022-08-03T12:03:34.831Z,29.45
2022-08-03T12:08:36.697Z,29.77
2022-08-03T12:14:44.752Z,30.09
2022-08-03T12:19:13.044Z,29.97
2022-08-03T12:24:16.522Z,30.10
2022-08-03T12:29:19.073Z,30.62
2022-08-03T12:34:25.507Z,30.93
2022-08-03T12:39:35.061Z,31.28
2022-08-03T12:44:36.915Z,31.59
2022-08-03T12:49:53.885Z,31.96
2022-08-03T12:55:00.116Z,32.29
2022-08-03T13:00:19.919Z,33.01
2022-08-03T13:05:30.368Z,33.60
2022-08-03T13:10:35.176Z,34.48
2022-08-03T13:15:47.834Z,34.36
2022-08-03T13:20:50.069Z,33.96
2022-08-03T13:25:55.304Z,34.70
2022-08-03T13:30:58.972Z,34.90
2022-08-03T13:36:02.507Z,35.13
2022-08-03T13:41:05.229Z,34.06
2022-08-03T13:46:09.411Z,34.22
2022-08-03T13:51:22.769Z,34.14
2022-08-03T13:56:27.109Z,33.70
2022-08-03T14:01:54.208Z,34.03
2022-08-03T14:06:53.962Z,34.76
2022-08-03T14:12:07.248Z,35.31
2022-08-03T14:17:10.669Z,34.50
2022-08-03T14:22:16.997Z,34.08
2022-08-03T14:27:21.558Z,34.13
2022-08-03T14:32:23.405Z,33.75
2022-08-03T14:37:27.691Z,34.71
2022-08-03T14:42:29.459Z,34.90
2022-08-03T14:47:33.659Z,35.15
2022-08-03T14:52:57.899Z,35.12
2022-08-03T14:58:10.024Z,34.78
2022-08-03T15:03:28.739Z,34.51
2022-08-03T15:08:34.419Z,34.59
2022-08-03T15:13:36.188Z,35.37
2022-08-03T15:18:40.111Z,35.53
2022-08-03T15:23:43.966Z,36.72
2022-08-03T15:28:51.079Z,36.13
2022-08-03T15:33:53.463Z,35.63
2022-08-03T15:38:56.428Z,36.02
2022-08-03T15:43:58.939Z,36.82
2022-08-03T15:49:00.676Z,37.31
2022-08-03T15:54:07.020Z,38.02
2022-08-03T15:59:14.102Z,38.30
2022-08-03T16:04:22.771Z,37.83
2022-08-03T16:09:42.438Z,37.18
2022-08-03T16:14:52.861Z,36.87
2022-08-03T16:19:59.894Z,36.58
2022-08-03T16:25:02.011Z,37.36
2022-08-03T16:30:11.484Z,37.08
2022-08-03T16:35:19.777Z,36.88
2022-08-03T16:40:24.922Z,36.38
2022-08-03T16:45:29.744Z,36.26
2022-08-03T16:50:31.530Z,35.36
2022-08-03T16:55:48.597Z,34.73
2022-08-03T17:00:57.541Z,34.10
2022-08-03T17:06:06.971Z,32.40
2022-08-03T17:11:14.711Z,31.26
2022-08-03T17:16:21.452Z,30.06
2022-08-03T17:21:30.964Z,29.67
2022-08-03T17:26:41.036Z,29.14
2022-08-03T17:31:48.679Z,28.66
2022-08-03T17:37:07.029Z,28.52
2022-08-03T17:42:30.892Z,27.85
2022-08-03T17:47:42.105Z,27.45
2022-08-03T17:52:51.401Z,27.01
2022-08-03T17:58:06.644Z,26.67
2022-08-03T18:03:58.273Z,26.39
2022-08-03T18:09:05.069Z,26.24
2022-08-03T18:14:38.849Z,25.88
2022-08-03T18:20:03.367Z,25.53
2022-08-03T18:25:13.241Z,25.43
2022-08-03T18:30:15.498Z,25.27
2022-08-03T18:35:24.715Z,25.00
2022-08-03T18:40:32.651Z,24.69
2022-08-03T18:45:55.865Z,24.54
2022-08-03T18:51:24.233Z,24.49
2022-08-03T18:56:44.552Z,24.34
2022-08-03T19:01:59.115Z,24.37
2022-08-03T19:07:16.961Z,24.10
2022-08-03T19:12:42.775Z,23.93
2022-08-03T19:17:53.287Z,23.72
2022-08-03T19:22:56.885Z,23.59
2022-08-03T19:28:03.030Z,23.28
2022-08-03T19:33:10.557Z,23.15
2022-08-03T19:43:54.004Z,22.89
2022-08-03T19:49:10.299Z,22.76
2022-08-03T19:54:16.002Z,22.68
2022-08-03T19:59:22.237Z,22.58
2022-08-03T20:04:28.953Z,22.48
2022-08-03T20:09:34.252Z,22.35
2022-08-03T20:14:39.046Z,22.32
2022-08-03T20:19:49.257Z,22.01
2022-08-03T20:24:54.310Z,22.02
2022-08-03T20:30:06.661Z,22.02
2022-08-03T20:35:11.728Z,21.97
2022-08-03T20:40:16.715Z,21.93
2022-08-03T20:45:58.382Z,22.02
2022-08-03T20:50:44.411Z,21.95
2022-08-03T20:56:02.168Z,21.88
2022-08-03T21:01:07.477Z,21.76
2022-08-03T21:06:15.133Z,21.66
2022-08-03T21:11:19.152Z,21.59
2022-08-03T21:13:09.393Z,23.00
2022-08-03T21:16:28.940Z,21.50
2022-08-03T21:21:33.407Z,21.44
2022-08-03T21:26:39.656Z,21.35
2022-08-03T21:31:43.430Z,21.29
2022-08-03T21:36:49.446Z,21.22
2022-08-03T21:41:55.725Z,21.16
2022-08-03T21:46:58.692Z,21.10
2022-08-03T21:52:11.575Z,21.07
2022-08-03T21:57:20.532Z,21.03
2022-08-03T22:02:27.794Z,21.00
2022-08-03T22:07:40.962Z,20.95
2022-08-03T22:12:47.423Z,20.88
2022-08-03T22:17:55.036Z,20.85
2022-08-03T22:23:04.605Z,20.84
2022-08-03T22:28:09.615Z,20.81
2022-08-03T22:33:14.928Z,20.80
2022-08-03T22:38:20.079Z,20.79
2022-08-03T22:43:27.145Z,20.75
2022-08-03T22:48:32.508Z,20.73
2022-08-03T22:53:39.055Z,20.73
2022-08-03T22:58:41.415Z,20.69
2022-08-03T23:04:00.083Z,20.67
2022-08-03T23:09:09.086Z,20.65
2022-08-03T23:14:12.492Z,20.62
2022-08-03T23:19:25.815Z,20.59
2022-08-03T23:24:29.589Z,20.56
2022-08-03T23:29:34.322Z,20.54
2022-08-03T23:34:58.355Z,20.49
2022-08-03T23:40:01.226Z,20.49
2022-08-03T23:45:06.575Z,20.46
2022-08-03T23:50:13.068Z,20.45
2022-08-03T23:55:14.723Z,20.43
